Time;durP1;ratioP1;P1;durP2;ratioP2;P2;SDS_P1;SDS_P2;PMS_P1;PMS_P2;Temp;Humidity;BMP_temperature;BMP_pressure;BME280_temperature;BME280_humidity;BME280_pressure;Samples;Min_cycle;Max_cycle;Signal;HPM_P1;HPM_P2
2023/03/17 00:01:31;;;;;;;17.00;9.27;;;;;;;42.44;34.99;100757.75;6154480;23;20161;-81
2023/03/17 00:03:57;;;;;;;17.43;8.17;;;;;;;42.53;35.03;100739.34;6154613;23;20519;-83
2023/03/17 00:06:31;;;;;;;19.47;6.97;;;;;;;42.67;34.55;100733.59;6154441;23;20419;-81
2023/03/17 00:08:57;;;;;;;13.23;6.90;;;;;;;42.78;34.68;100710.13;6154526;23;20893;-82
2023/03/17 00:11:24;;;;;;;20.33;7.13;;;;;;;42.85;34.71;100720.50;6155571;23;20396;-78
2023/03/17 00:13:50;;;;;;;9.67;5.63;;;;;;;42.84;34.39;100718.88;6153563;23;20432;-79
2023/03/17 00:16:20;;;;;;;17.47;8.90;;;;;;;42.69;34.78;100720.38;6154152;23;20452;-81
2023/03/17 00:18:49;;;;;;;15.07;7.33;;;;;;;42.09;35.68;100728.16;6154455;23;20415;-83
2023/03/17 00:21:31;;;;;;;22.60;8.03;;;;;;;41.97;36.38;100721.88;6153823;23;20389;-78
2023/03/17 00:23:58;;;;;;;20.37;7.53;;;;;;;42.00;36.06;100749.28;6155621;23;20420;-78
2023/03/17 00:26:25;;;;;;;18.10;8.47;;;;;;;41.59;36.51;100742.75;6153777;23;20848;-78
2023/03/17 00:28:53;;;;;;;16.93;8.50;;;;;;;41.67;37.00;100732.09;6153624;23;20409;-78
2023/03/17 00:31:27;;;;;;;12.40;7.60;;;;;;;41.61;36.88;100731.50;6153624;23;20444;-78
2023/03/17 00:33:54;;;;;;;21.53;6.30;;;;;;;41.49;37.25;100729.53;6153772;23;20428;-78
2023/03/17 00:36:31;;;;;;;15.10;7.10;;;;;;;41.83;36.50;100712.09;6153874;23;20393;-80
2023/03/17 00:38:58;;;;;;;20.57;7.70;;;;;;;41.48;37.01;100716.25;6153438;23;20384;-81
2023/03/17 00:41:24;;;;;;;18.20;8.00;;;;;;;41.73;36.63;100703.53;6153694;23;20392;-79
2023/03/17 00:43:50;;;;;;;22.87;8.77;;;;;;;41.86;36.25;100697.78;6155419;23;20357;-80
2023/03/17 00:46:23;;;;;;;17.43;7.83;;;;;;;41.57;36.89;100685.13;6154755;23;20456;-78
2023/03/17 00:48:49;;;;;;;11.23;7.03;;;;;;;41.70;36.84;100701.50;6153422;23;20472;-78
2023/03/17 00:51:15;;;;;;;21.80;8.40;;;;;;;41.33;36.92;100677.66;6153517;23;20396;-78
2023/03/17 00:53:42;;;;;;;14.43;8.27;;;;;;;41.82;36.07;100677.03;6153818;23;20425;-80
2023/03/17 00:56:17;;;;;;;23.37;9.57;;;;;;;42.04;36.02;100673.06;6178419;23;20388;-78
2023/03/17 00:58:43;;;;;;;26.70;8.23;;;;;;;41.77;36.86;100669.88;6153549;23;20407;-78
2023/03/17 01:01:10;;;;;;;14.90;7.80;;;;;;;42.05;35.99;100661.84;6153499;23;20417;-80
2023/03/17 01:03:36;;;;;;;23.93;8.47;;;;;;;42.06;35.87;100647.09;6153170;23;20381;-79
2023/03/17 01:06:05;;;;;;;25.23;8.23;;;;;;;42.18;36.05;100662.69;6153522;23;20389;-78
2023/03/17 01:08:31;;;;;;;15.03;7.90;;;;;;;42.14;36.08;100665.25;6153218;23;20389;-77
2023/03/17 01:10:58;;;;;;;18.43;7.83;;;;;;;42.27;36.12;100665.28;6153420;23;20384;-78
2023/03/17 01:13:24;;;;;;;15.30;7.03;;;;;;;41.88;36.95;100661.25;6155331;23;20413;-78
2023/03/17 01:15:51;;;;;;;13.10;7.43;;;;;;;41.96;36.74;100655.69;6153278;23;20382;-78
2023/03/17 01:18:21;;;;;;;19.97;9.03;;;;;;;41.81;36.71;100643.56;6153237;23;20385;-78
2023/03/17 01:20:48;;;;;;;15.67;8.10;;;;;;;41.73;36.67;100638.16;6153276;23;20377;-79
2023/03/17 01:23:15;;;;;;;18.07;7.00;;;;;;;41.67;36.63;100629.41;6155231;23;20362;-78
2023/03/17 01:25:43;;;;;;;20.27;8.40;;;;;;;41.79;36.50;100634.09;6155355;23;20893;-78
2023/03/17 01:28:13;;;;;;;20.90;7.37;;;;;;;41.77;36.37;100626.28;6155110;23;20404;-78
2023/03/17 01:30:40;;;;;;;16.77;7.70;;;;;;;42.02;36.44;100632.53;6153283;23;20389;-78
2023/03/17 01:33:08;;;;;;;18.03;7.70;;;;;;;42.07;36.09;100626.06;6152839;23;20964;-78
2023/03/17 01:35:37;;;;;;;27.13;9.90;;;;;;;42.15;35.76;100636.06;6178208;23;20377;-78
2023/03/17 01:38:04;;;;;;;20.33;8.37;;;;;;;41.83;36.38;100630.38;6153170;23;20384;-78
2023/03/17 01:40:42;;;;;;;12.73;7.37;;;;;;;41.71;36.36;100627.59;6153243;23;20484;-80
2023/03/17 01:43:08;;;;;;;20.23;6.87;;;;;;;41.87;36.09;100630.50;6153196;23;20919;-79
2023/03/17 01:46:11;;;;;;;25.13;8.77;;;;;;;42.08;36.15;100624.94;6153088;23;20409;-77
2023/03/17 01:48:46;;;;;;;21.53;10.47;;;;;;;42.05;35.77;100617.44;6154486;23;20148;-78
2023/03/17 01:51:21;;;;;;;13.37;7.17;;;;;;;41.95;35.76;100626.06;6153073;23;20389;-78
2023/03/17 01:53:51;;;;;;;20.27;8.83;;;;;;;42.08;36.00;100614.81;6154661;23;20419;-78
2023/03/17 01:56:18;;;;;;;24.73;9.90;;;;;;;42.32;35.83;100619.50;6153053;23;20804;-80
2023/03/17 01:58:48;;;;;;;25.20;7.43;;;;;;;42.35;35.25;100621.53;6152281;23;20392;-78
2023/03/17 02:01:14;;;;;;;24.07;8.93;;;;;;;42.29;35.61;100624.84;6155133;23;20370;-78
2023/03/17 02:03:41;;;;;;;20.83;9.20;;;;;;;42.09;35.72;100629.25;6152257;23;20479;-78
2023/03/17 02:06:08;;;;;;;24.87;8.10;;;;;;;41.98;36.52;100620.72;6152390;23;20859;-78
2023/03/17 02:08:34;;;;;;;12.10;7.57;;;;;;;42.10;36.20;100622.66;6152743;23;20854;-77
2023/03/17 02:11:02;;;;;;;18.77;12.90;;;;;;;41.97;36.21;100627.31;6153137;23;20385;-78
2023/03/17 02:13:28;;;;;;;16.83;7.63;;;;;;;42.04;35.97;100630.25;6153054;23;20929;-78
2023/03/17 02:15:55;;;;;;;21.20;8.53;;;;;;;42.20;36.00;100632.34;6177620;23;20396;-80
2023/03/17 02:18:25;;;;;;;23.23;9.20;;;;;;;41.97;35.66;100631.97;6152837;23;20412;-80
2023/03/17 02:20:54;;;;;;;18.90;7.57;;;;;;;42.12;35.34;100629.38;6154527;23;20370;-81
2023/03/17 02:23:21;;;;;;;19.87;9.33;;;;;;;42.12;35.24;100618.47;6154144;23;20389;-78
2023/03/17 02:25:50;;;;;;;17.97;10.27;;;;;;;41.91;36.03;100615.06;6152638;23;20439;-80
2023/03/17 02:28:21;;;;;;;20.93;9.27;;;;;;;42.15;35.55;100625.16;6152828;23;20445;-78
2023/03/17 02:30:47;;;;;;;18.03;11.07;;;;;;;41.99;35.91;100622.34;6152705;23;20425;-80
2023/03/17 02:33:13;;;;;;;24.43;9.80;;;;;;;41.82;36.00;100623.34;6151598;23;20456;-80
2023/03/17 02:35:40;;;;;;;17.03;7.90;;;;;;;41.86;36.38;100623.44;6152500;23;20240;-80
2023/03/17 02:38:06;;;;;;;22.40;6.83;;;;;;;42.08;36.06;100620.28;6152413;23;20392;-80
2023/03/17 02:40:32;;;;;;;21.20;8.97;;;;;;;41.80;36.05;100614.69;6153967;23;20385;-78
2023/03/17 02:42:58;;;;;;;20.17;9.13;;;;;;;41.74;36.13;100620.66;6154687;23;20444;-78
2023/03/17 02:45:24;;;;;;;17.33;7.87;;;;;;;41.69;36.26;100613.53;6156487;23;20374;-80
2023/03/17 02:47:51;;;;;;;20.50;7.90;;;;;;;41.79;36.42;100618.56;6179501;23;20812;-79
2023/03/17 02:50:22;;;;;;;25.93;8.53;;;;;;;41.91;36.15;100628.66;6154955;23;20417;-78
2023/03/17 02:52:49;;;;;;;17.77;9.23;;;;;;;41.94;36.43;100624.50;6156675;23;20442;-78
2023/03/17 02:55:15;;;;;;;14.33;8.00;;;;;;;41.92;35.86;100615.84;6154677;23;20405;-78
2023/03/17 02:57:42;;;;;;;17.33;8.40;;;;;;;41.88;36.30;100617.69;6154507;23;20416;-78
2023/03/17 03:00:09;;;;;;;19.63;9.00;;;;;;;41.90;36.07;100618.13;6154511;23;20496;-81
2023/03/17 03:02:39;;;;;;;20.60;8.17;;;;;;;41.48;36.52;100608.16;6179282;23;20420;-80
2023/03/17 03:05:07;;;;;;;20.00;7.80;;;;;;;41.57;36.56;100622.47;6154546;23;20417;-79
2023/03/17 03:07:34;;;;;;;19.70;9.20;;;;;;;41.75;36.42;100631.28;6154496;23;20385;-77
2023/03/17 03:10:01;;;;;;;18.90;10.10;;;;;;;41.69;36.18;100624.44;6154426;23;20782;-78
2023/03/17 03:12:27;;;;;;;16.50;7.03;;;;;;;41.70;36.08;100622.50;6154515;23;20909;-80
2023/03/17 03:14:53;;;;;;;19.57;7.90;;;;;;;41.97;35.96;100629.25;6154189;23;20400;-80
2023/03/17 03:17:20;;;;;;;21.13;7.77;;;;;;;42.00;35.66;100629.38;6155421;23;20396;-79
2023/03/17 03:19:47;;;;;;;23.67;8.30;;;;;;;42.21;35.80;100640.19;6179036;23;20706;-78
2023/03/17 03:22:14;;;;;;;17.47;8.87;;;;;;;42.24;35.61;100634.06;6154370;23;20420;-78
2023/03/17 03:24:40;;;;;;;18.33;7.83;;;;;;;42.02;35.50;100638.00;6154355;23;20425;-78
2023/03/17 03:27:06;;;;;;;22.30;8.87;;;;;;;42.09;35.62;100642.88;6154165;23;20424;-78
2023/03/17 03:29:32;;;;;;;16.87;8.20;;;;;;;42.27;35.53;100638.03;6153756;23;20484;-78
2023/03/17 03:31:58;;;;;;;19.40;8.80;;;;;;;42.07;35.67;100634.25;6178703;23;20445;-78
2023/03/17 03:34:24;;;;;;;17.13;8.83;;;;;;;42.28;35.47;100640.41;6154038;23;20402;-78
2023/03/17 03:36:50;;;;;;;18.40;8.57;;;;;;;42.20;35.32;100643.25;6154333;23;20543;-78
2023/03/17 03:39:16;;;;;;;22.63;7.83;;;;;;;42.37;35.33;100640.28;6153960;23;20413;-78
2023/03/17 03:41:42;;;;;;;34.70;9.20;;;;;;;42.36;34.76;100642.22;6154180;23;20381;-79
2023/03/17 03:44:08;;;;;;;23.07;7.40;;;;;;;42.26;34.89;100642.69;6153940;23;20389;-79
2023/03/17 03:46:34;;;;;;;20.53;9.43;;;;;;;42.33;34.94;100642.91;6154151;23;20177;-78
2023/03/17 03:49:00;;;;;;;24.43;9.53;;;;;;;42.11;35.28;100646.03;6156102;23;20522;-78
2023/03/17 03:51:26;;;;;;;18.90;7.73;;;;;;;42.32;35.26;100645.97;6154161;23;20387;-80
2023/03/17 03:53:52;;;;;;;26.03;11.13;;;;;;;42.22;35.15;100640.97;6154039;23;20445;-80
2023/03/17 03:56:17;;;;;;;22.70;10.07;;;;;;;42.19;35.38;100647.13;6154196;23;20721;-79
2023/03/17 03:58:43;;;;;;;15.80;7.20;;;;;;;42.21;35.26;100645.63;6153832;23;20802;-80
2023/03/17 04:01:09;;;;;;;16.27;8.23;;;;;;;42.10;35.24;100633.56;6154062;23;20154;-80
2023/03/17 04:03:37;;;;;;;20.63;9.60;;;;;;;42.07;35.20;100634.25;6154654;23;20405;-80
2023/03/17 04:06:03;;;;;;;19.70;8.87;;;;;;;42.26;34.54;100641.88;6154042;23;20475;-80
2023/03/17 04:08:30;;;;;;;17.00;7.10;;;;;;;42.28;34.18;100645.84;6153924;23;20385;-82
2023/03/17 04:10:57;;;;;;;16.90;7.27;;;;;;;42.29;34.35;100654.81;6154006;23;20392;-80
2023/03/17 04:13:23;;;;;;;19.23;7.30;;;;;;;42.07;34.99;100650.59;6153853;23;20785;-80
2023/03/17 04:15:49;;;;;;;15.07;6.57;;;;;;;42.25;34.69;100646.53;6153811;23;20386;-80
2023/03/17 04:18:15;;;;;;;21.77;8.60;;;;;;;42.21;34.96;100640.19;6153849;23;20405;-81
2023/03/17 04:20:41;;;;;;;21.57;8.90;;;;;;;42.12;34.85;100653.09;6153748;23;20389;-80
2023/03/17 04:23:07;;;;;;;18.97;8.40;;;;;;;42.06;34.87;100644.38;6153552;23;20153;-80
2023/03/17 04:25:33;;;;;;;21.97;11.10;;;;;;;42.04;35.47;100638.44;6153917;23;20408;-81
2023/03/17 04:27:59;;;;;;;22.27;9.27;;;;;;;42.21;35.03;100653.00;6155061;23;20401;-80
2023/03/17 04:30:26;;;;;;;18.43;9.50;;;;;;;41.98;35.23;100647.19;6153808;23;20440;-80
2023/03/17 04:32:51;;;;;;;17.93;8.60;;;;;;;42.20;35.21;100646.78;6153543;23;20455;-79
2023/03/17 04:35:23;;;;;;;24.77;8.43;;;;;;;42.26;35.08;100653.59;6153597;23;20460;-79
2023/03/17 04:37:49;;;;;;;17.03;7.70;;;;;;;42.04;35.32;100640.38;6153335;23;20150;-80
2023/03/17 04:40:17;;;;;;;16.43;7.73;;;;;;;42.27;35.19;100640.75;6153484;23;20381;-79
2023/03/17 04:42:43;;;;;;;17.50;9.50;;;;;;;42.18;34.88;100640.88;6153591;23;20846;-82
2023/03/17 04:45:11;;;;;;;20.97;8.90;;;;;;;42.16;35.21;100645.03;6178229;23;20802;-82
2023/03/17 04:47:38;;;;;;;14.90;8.53;;;;;;;42.19;35.20;100638.94;6153535;23;20392;-82
2023/03/17 04:50:06;;;;;;;20.27;8.97;;;;;;;42.16;35.00;100643.13;6151635;23;20470;-80
2023/03/17 04:52:34;;;;;;;16.83;8.00;;;;;;;42.14;34.94;100642.66;6153399;23;20448;-79
2023/03/17 04:55:00;;;;;;;27.10;8.50;;;;;;;42.01;35.08;100641.06;6153362;23;20397;-80
2023/03/17 04:57:26;;;;;;;16.50;8.70;;;;;;;41.56;36.11;100642.69;6153365;23;20417;-80
2023/03/17 04:59:52;;;;;;;23.67;8.40;;;;;;;41.75;36.32;100647.63;6178950;23;20441;-79
2023/03/17 05:02:18;;;;;;;24.63;9.27;;;;;;;41.68;35.73;100647.34;6178227;23;20389;-79
2023/03/17 05:04:44;;;;;;;15.93;9.03;;;;;;;41.68;36.19;100651.97;6153399;23;20390;-79
2023/03/17 05:07:12;;;;;;;19.23;7.60;;;;;;;41.62;36.14;100656.88;6178301;23;20923;-79
2023/03/17 05:09:38;;;;;;;22.70;8.50;;;;;;;41.66;35.82;100659.69;6153564;23;20434;-79
2023/03/17 05:12:04;;;;;;;19.67;9.30;;;;;;;41.60;35.80;100654.47;6153238;23;20867;-82
2023/03/17 05:14:30;;;;;;;20.43;9.10;;;;;;;41.81;35.61;100653.66;6153718;23;20180;-83
2023/03/17 05:16:56;;;;;;;18.40;8.33;;;;;;;41.53;36.11;100651.50;6153254;23;20733;-82
2023/03/17 05:19:22;;;;;;;23.73;10.40;;;;;;;41.56;35.92;100658.22;6153561;23;20157;-83
2023/03/17 05:21:48;;;;;;;20.53;8.30;;;;;;;41.74;35.77;100665.09;6153334;23;20393;-79
2023/03/17 05:24:14;;;;;;;15.93;8.70;;;;;;;41.46;35.74;100670.31;6153452;23;20163;-78
2023/03/17 05:26:40;;;;;;;20.60;9.70;;;;;;;41.55;36.15;100667.50;6153390;23;20179;-78
2023/03/17 05:29:07;;;;;;;25.53;8.97;;;;;;;41.63;35.44;100676.72;6152458;23;20419;-78
2023/03/17 05:31:33;;;;;;;20.20;9.77;;;;;;;41.50;35.97;100675.91;6153352;23;20531;-77
2023/03/17 05:33:59;;;;;;;20.93;7.37;;;;;;;41.27;36.24;100668.06;6152888;23;20431;-78
2023/03/17 05:36:25;;;;;;;21.50;11.73;;;;;;;41.54;35.67;100676.81;6177603;23;20796;-78
2023/03/17 05:38:51;;;;;;;21.73;9.03;;;;;;;41.73;35.33;100681.72;6152682;23;20862;-78
2023/03/17 05:41:17;;;;;;;18.33;8.30;;;;;;;41.52;36.07;100665.47;6152586;23;20381;-78
2023/03/17 05:43:43;;;;;;;16.20;8.93;;;;;;;41.23;36.01;100686.19;6152804;23;20384;-77
2023/03/17 05:46:10;;;;;;;15.10;8.43;;;;;;;41.58;35.75;100683.19;6153136;23;20389;-79
2023/03/17 05:48:35;;;;;;;24.60;8.40;;;;;;;41.64;35.72;100703.63;6152826;23;20154;-78
2023/03/17 05:51:02;;;;;;;14.17;8.33;;;;;;;41.70;36.37;100713.19;6154253;23;20388;-78
2023/03/17 05:53:28;;;;;;;15.77;8.37;;;;;;;41.46;36.47;100710.38;6155133;23;20248;-77
2023/03/17 05:55:55;;;;;;;19.27;8.50;;;;;;;41.57;36.47;100717.00;6155256;23;20388;-78
2023/03/17 05:58:21;;;;;;;22.03;8.70;;;;;;;41.73;35.99;100722.59;6154867;23;20385;-77
2023/03/17 06:00:46;;;;;;;24.40;7.67;;;;;;;41.97;35.69;100743.69;6151847;23;20730;-77
2023/03/17 06:03:13;;;;;;;30.70;10.90;;;;;;;42.01;35.86;100750.06;6155366;23;20449;-78
2023/03/17 06:05:39;;;;;;;22.77;11.30;;;;;;;42.02;36.16;100751.66;6152351;23;20154;-79
2023/03/17 06:08:05;;;;;;;19.67;8.90;;;;;;;42.14;35.26;100736.13;6151829;23;20861;-82
2023/03/17 06:10:31;;;;;;;16.27;8.40;;;;;;;42.10;35.59;100737.91;6153137;23;20385;-81
2023/03/17 06:12:58;;;;;;;24.13;9.53;;;;;;;42.20;35.22;100747.63;6152002;23;20838;-83
2023/03/17 06:15:25;;;;;;;21.93;7.37;;;;;;;42.24;35.51;100758.66;6153071;23;20420;-80
2023/03/17 06:17:51;;;;;;;29.10;9.93;;;;;;;42.17;35.37;100770.09;6153645;23;20413;-83
2023/03/17 06:20:18;;;;;;;20.43;8.33;;;;;;;42.01;35.86;100769.94;6155212;23;20381;-82
2023/03/17 06:22:44;;;;;;;19.30;8.10;;;;;;;42.21;34.97;100781.91;6155172;23;20405;-83
2023/03/17 06:25:12;;;;;;;14.40;8.10;;;;;;;42.07;35.50;100776.75;6152261;23;20909;-83
2023/03/17 06:27:39;;;;;;;22.93;8.60;;;;;;;41.89;35.79;100783.53;6155281;23;20381;-81
2023/03/17 06:30:07;;;;;;;22.83;8.50;;;;;;;42.12;35.51;100794.84;6153750;23;20897;-77
2023/03/17 06:32:34;;;;;;;28.27;9.83;;;;;;;42.22;35.38;100786.22;6129854;23;20453;-81
2023/03/17 06:35:00;;;;;;;38.97;11.83;;;;;;;42.07;35.41;100793.09;6154682;23;20737;-81
2023/03/17 06:37:26;;;;;;;25.00;13.70;;;;;;;42.31;34.99;100802.50;6153675;23;20380;-78
2023/03/17 06:39:52;;;;;;;28.97;9.77;;;;;;;42.14;34.56;100801.53;6154945;23;20392;-78
2023/03/17 06:42:18;;;;;;;18.03;9.30;;;;;;;42.42;34.58;100811.03;6153909;23;20389;-79
2023/03/17 06:44:44;;;;;;;17.70;8.87;;;;;;;42.55;34.64;100810.72;6179251;23;20479;-78
2023/03/17 06:47:11;;;;;;;17.73;10.00;;;;;;;42.13;35.13;100818.22;6151386;23;20381;-78
2023/03/17 06:49:36;;;;;;;16.30;7.30;;;;;;;42.01;34.93;100827.16;6150855;23;20439;-78
2023/03/17 06:52:03;;;;;;;22.00;10.20;;;;;;;42.25;34.74;100831.13;6176057;23;20413;-79
2023/03/17 06:54:29;;;;;;;19.23;8.60;;;;;;;42.16;34.60;100833.91;6152866;23;20249;-79
2023/03/17 06:56:55;;;;;;;30.00;9.77;;;;;;;42.26;34.65;100827.25;6153126;23;20897;-79
2023/03/17 06:59:21;;;;;;;23.40;12.77;;;;;;;42.28;34.54;100847.59;6151099;23;20435;-80
2023/03/17 07:01:48;;;;;;;19.50;8.23;;;;;;;42.07;34.40;100839.44;6152029;23;20724;-81
2023/03/17 07:04:15;;;;;;;20.57;9.63;;;;;;;42.16;34.42;100855.72;6178152;23;20472;-79
2023/03/17 07:06:41;;;;;;;24.43;10.40;;;;;;;42.13;34.75;100856.38;6153108;23;20484;-82
2023/03/17 07:09:08;;;;;;;22.47;9.10;;;;;;;42.40;34.58;100865.91;6153407;23;20440;-81
2023/03/17 07:11:35;;;;;;;21.03;9.30;;;;;;;42.18;34.83;100860.88;6152604;23;20393;-79
2023/03/17 07:14:01;;;;;;;28.83;8.77;;;;;;;42.17;35.21;100862.75;6177502;23;20451;-81
2023/03/17 07:16:28;;;;;;;15.97;8.57;;;;;;;42.15;35.15;100854.09;6155691;23;20445;-79
2023/03/17 07:18:54;;;;;;;16.23;9.10;;;;;;;42.36;34.92;100870.47;6153037;23;20393;-78
2023/03/17 07:21:20;;;;;;;26.20;8.60;;;;;;;42.11;35.22;100875.81;6155007;23;20467;-79
2023/03/17 07:23:46;;;;;;;27.63;9.47;;;;;;;42.19;34.80;100882.31;6153762;23;20377;-79
2023/03/17 07:26:12;;;;;;;16.80;8.80;;;;;;;42.29;34.60;100887.34;6154717;23;20444;-81
2023/03/17 07:28:39;;;;;;;22.00;8.93;;;;;;;42.23;35.18;100898.78;6154870;23;20404;-80
2023/03/17 07:31:07;;;;;;;27.70;9.80;;;;;;;42.39;34.60;100888.84;6154499;23;20473;-80
2023/03/17 07:33:33;;;;;;;19.83;8.40;;;;;;;42.44;34.22;100882.41;6157841;23;20455;-80
2023/03/17 07:36:00;;;;;;;15.77;8.80;;;;;;;42.42;34.56;100898.28;6158989;23;20733;-80
2023/03/17 07:38:26;;;;;;;16.93;8.83;;;;;;;42.22;34.44;100897.19;6183943;23;20388;-82
2023/03/17 07:40:52;;;;;;;23.17;8.50;;;;;;;42.38;34.55;100909.06;6158607;23;20395;-81
2023/03/17 07:43:18;;;;;;;23.40;8.20;;;;;;;42.49;34.59;100918.44;6157776;23;20419;-77
2023/03/17 07:45:45;;;;;;;20.43;10.10;;;;;;;42.31;34.92;100904.19;6157802;23;20164;-80
2023/03/17 07:48:11;;;;;;;14.07;9.00;;;;;;;42.43;34.62;100918.97;6158005;23;20412;-80
2023/03/17 07:50:37;;;;;;;19.43;8.27;;;;;;;42.39;34.79;100925.09;6157530;23;20423;-80
2023/03/17 07:53:04;;;;;;;17.37;8.60;;;;;;;42.15;35.01;100911.34;6157861;23;20455;-79
2023/03/17 07:55:32;;;;;;;16.07;10.00;;;;;;;42.33;35.08;100933.81;6157623;23;20392;-82
2023/03/17 07:57:58;;;;;;;24.03;9.23;;;;;;;42.32;34.90;100938.47;6157945;23;20384;-83
2023/03/17 08:00:26;;;;;;;21.00;8.57;;;;;;;42.53;34.46;100935.69;6182602;23;20408;-82
2023/03/17 08:02:52;;;;;;;21.20;14.00;;;;;;;42.40;33.91;100929.41;6157960;23;20383;-84
2023/03/17 08:05:18;;;;;;;15.07;9.27;;;;;;;42.47;33.73;100939.78;6182708;23;20380;-84
2023/03/17 08:07:44;;;;;;;17.03;8.50;;;;;;;42.27;34.07;100933.22;6157420;23;20475;-84
2023/03/17 08:10:12;;;;;;;13.50;8.23;;;;;;;42.13;34.50;100947.13;6157810;23;20414;-84
2023/03/17 08:12:38;;;;;;;13.70;7.30;;;;;;;41.83;35.29;100951.84;6157432;23;20208;-84
2023/03/17 08:15:06;;;;;;;18.23;7.97;;;;;;;42.06;35.41;100937.88;6157326;23;20458;-81
2023/03/17 08:17:33;;;;;;;23.17;6.53;;;;;;;42.16;34.95;100962.03;6157684;23;20380;-84
2023/03/17 08:19:59;;;;;;;12.63;6.90;;;;;;;42.11;34.97;100951.28;6182389;23;20396;-85
2023/03/17 08:22:27;;;;;;;21.63;8.70;;;;;;;42.10;35.31;100952.44;6158272;23;20381;-85
2023/03/17 08:24:54;;;;;;;15.50;7.43;;;;;;;42.10;35.35;100945.03;6157862;23;20384;-88
2023/03/17 08:27:21;;;;;;;20.67;7.60;;;;;;;41.93;35.76;100945.22;6157736;23;20388;-84
2023/03/17 08:29:47;;;;;;;15.37;7.97;;;;;;;41.96;35.81;100943.72;6157762;23;20971;-85
2023/03/17 08:32:13;;;;;;;16.37;8.43;;;;;;;42.01;35.33;100954.44;6177872;23;20945;-85
2023/03/17 08:34:39;;;;;;;13.37;8.00;;;;;;;41.87;34.94;100952.00;6154019;23;20801;-86
2023/03/17 08:37:06;;;;;;;14.47;7.50;;;;;;;41.84;35.10;100953.44;6154954;23;20411;-88
2023/03/17 08:39:32;;;;;;;19.67;8.33;;;;;;;41.92;35.34;100953.69;6153423;23;20409;-81
2023/03/17 08:41:58;;;;;;;11.77;7.57;;;;;;;42.00;35.66;100964.53;6153790;23;20723;-83
2023/03/17 08:44:25;;;;;;;28.60;8.83;;;;;;;42.05;35.53;100953.44;6153962;23;20480;-82
2023/03/17 08:46:51;;;;;;;20.63;8.00;;;;;;;42.16;35.21;100964.75;6155764;23;20381;-82
2023/03/17 08:49:17;;;;;;;16.87;9.33;;;;;;;42.06;35.07;100960.50;6153961;23;20842;-83
2023/03/17 08:51:43;;;;;;;22.13;8.60;;;;;;;42.08;34.78;100971.84;6153634;23;20397;-81
2023/03/17 08:54:10;;;;;;;16.87;7.37;;;;;;;42.37;34.19;100965.53;6152956;23;20428;-83
2023/03/17 08:56:37;;;;;;;14.67;9.10;;;;;;;42.01;34.97;100973.50;6153094;23;20385;-82
2023/03/17 08:59:07;;;;;;;18.90;8.13;;;;;;;41.84;35.07;100977.16;6153563;23;20404;-82
2023/03/17 09:01:33;;;;;;;14.07;6.80;;;;;;;42.12;35.00;100972.00;6155038;23;20413;-81
2023/03/17 09:04:00;;;;;;;18.33;7.90;;;;;;;42.30;34.82;100984.38;6152829;23;20381;-84
2023/03/17 09:06:26;;;;;;;23.83;8.97;;;;;;;41.90;34.88;100975.03;6154910;23;20361;-81
2023/03/17 09:08:55;;;;;;;21.50;8.67;;;;;;;42.14;34.57;100975.16;6153013;23;20401;-81
2023/03/17 09:11:24;;;;;;;14.47;6.57;;;;;;;42.27;34.57;100976.84;6153083;23;20794;-81
2023/03/17 09:13:50;;;;;;;17.80;8.97;;;;;;;42.46;33.94;100973.63;6152772;23;21032;-81
2023/03/17 09:16:21;;;;;;;15.40;6.97;;;;;;;42.21;34.55;100972.72;6153007;23;20417;-80
2023/03/17 09:18:47;;;;;;;16.33;8.17;;;;;;;42.21;34.16;100977.38;6153155;23;20454;-82
2023/03/17 09:21:14;;;;;;;21.17;10.80;;;;;;;42.40;34.62;100986.69;6152716;23;20382;-81
2023/03/17 09:23:42;;;;;;;16.20;8.40;;;;;;;42.56;34.41;100975.16;6153037;23;20381;-82
2023/03/17 09:26:09;;;;;;;14.10;7.27;;;;;;;42.49;34.43;100980.38;6178028;23;20388;-81
2023/03/17 09:28:35;;;;;;;16.20;7.63;;;;;;;42.65;33.78;100979.41;6152895;23;20516;-81
2023/03/17 09:31:04;;;;;;;24.33;8.37;;;;;;;42.37;34.18;100968.28;6153423;23;20377;-82
2023/03/17 09:33:31;;;;;;;17.30;8.13;;;;;;;42.61;34.29;100967.59;6157768;23;20440;-82
2023/03/17 09:35:57;;;;;;;17.23;8.83;;;;;;;42.80;34.23;100969.78;6157961;23;20376;-82
2023/03/17 09:38:26;;;;;;;20.70;7.37;;;;;;;42.80;34.21;100955.34;6157980;23;20395;-82
2023/03/17 09:41:11;;;;;;;15.63;7.53;;;;;;;42.64;34.48;100964.19;6157583;23;20388;-83
2023/03/17 09:44:01;;;;;;;19.07;6.93;;;;;;;42.89;34.09;100967.75;6184442;23;20360;-82
2023/03/17 09:46:53;;;;;;;22.90;8.20;;;;;;;42.86;34.08;100973.09;6157898;23;20458;-82
2023/03/17 09:49:28;;;;;;;17.77;9.50;;;;;;;42.81;34.07;100957.75;6157938;23;20373;-82
2023/03/17 09:51:55;;;;;;;14.20;7.63;;;;;;;42.85;34.10;100947.75;6157899;23;20452;-83
2023/03/17 09:54:34;;;;;;;19.17;8.40;;;;;;;42.74;33.85;100938.41;6157232;23;20927;-80
2023/03/17 09:57:11;;;;;;;19.73;7.93;;;;;;;42.67;34.43;100961.94;6157161;23;20416;-80
2023/03/17 09:59:48;;;;;;;17.63;7.13;;;;;;;42.80;33.97;100947.97;6156782;23;20383;-82
2023/03/17 10:02:31;;;;;;;19.23;8.07;;;;;;;42.58;34.42;100946.44;6157286;23;20717;-81
2023/03/17 10:04:57;;;;;;;22.53;6.97;;;;;;;42.67;34.32;100930.00;6156676;23;20387;-82
2023/03/17 10:07:49;;;;;;;16.03;8.17;;;;;;;42.74;34.84;100940.34;6156614;23;20391;-80
2023/03/17 10:10:47;;;;;;;16.53;8.20;;;;;;;42.58;34.19;100915.63;6156774;23;20380;-84
2023/03/17 10:13:44;;;;;;;20.53;9.40;;;;;;;42.78;34.13;100949.44;6156638;23;20765;-82
2023/03/17 10:16:17;;;;;;;14.57;7.77;;;;;;;42.69;33.72;100941.34;6156987;23;20380;-82
2023/03/17 10:19:02;;;;;;;16.33;8.27;;;;;;;42.71;33.61;100938.28;6158302;23;20787;-81
2023/03/17 10:21:36;;;;;;;17.77;8.13;;;;;;;42.70;33.39;100945.66;6152263;23;20904;-80
2023/03/17 10:24:04;;;;;;;19.30;8.73;;;;;;;42.67;34.34;100942.84;6157106;23;20380;-80
2023/03/17 10:26:39;;;;;;;18.37;7.03;;;;;;;42.84;34.34;100945.34;6181453;23;20418;-83
2023/03/17 10:29:13;;;;;;;20.00;7.70;;;;;;;43.03;34.20;100953.00;6157249;23;20418;-79
2023/03/17 10:31:39;;;;;;;18.63;7.70;;;;;;;42.79;34.13;100923.75;6157474;23;20444;-81
2023/03/17 10:34:24;;;;;;;22.13;9.07;;;;;;;42.65;33.60;100940.41;6157462;23;20435;-80
2023/03/17 10:37:07;;;;;;;24.57;7.90;;;;;;;42.85;33.38;100930.59;6158071;23;20399;-81
2023/03/17 10:39:45;;;;;;;17.83;7.70;;;;;;;42.96;33.56;100930.91;6185354;23;20356;-84
2023/03/17 10:42:20;;;;;;;21.60;9.03;;;;;;;43.02;33.64;100929.59;6159156;23;20388;-80
2023/03/17 10:44:55;;;;;;;14.23;7.00;;;;;;;42.86;33.16;100916.59;6185122;23;20462;-81
2023/03/17 10:47:32;;;;;;;15.87;8.60;;;;;;;42.70;33.92;100929.28;6158697;23;20392;-81
2023/03/17 10:50:17;;;;;;;18.37;7.43;;;;;;;42.84;33.73;100926.25;6158486;23;20450;-82
2023/03/17 10:52:46;;;;;;;11.80;6.70;;;;;;;43.15;33.66;100920.25;6158274;23;20435;-82
2023/03/17 10:55:19;;;;;;;16.97;7.37;;;;;;;43.00;33.75;100899.91;6156945;23;20471;-79
2023/03/17 10:58:00;;;;;;;20.43;7.80;;;;;;;42.73;34.12;100914.19;6158264;23;20931;-81
2023/03/17 11:00:32;;;;;;;15.47;6.93;;;;;;;42.91;34.04;100902.75;6158052;23;20392;-80
2023/03/17 11:03:17;;;;;;;30.83;7.80;;;;;;;42.97;33.91;100900.59;6157982;23;20384;-83
2023/03/17 11:06:01;;;;;;;21.27;6.80;;;;;;;42.90;33.98;100892.94;6157560;23;20530;-79
2023/03/17 11:08:38;;;;;;;16.53;8.10;;;;;;;42.75;33.89;100882.69;6158460;23;20925;-81
2023/03/17 11:11:07;;;;;;;19.10;8.20;;;;;;;42.64;34.38;100897.91;6158589;23;20439;-81
2023/03/17 11:13:33;;;;;;;17.90;8.43;;;;;;;43.00;34.03;100893.66;6158349;23;20915;-80
2023/03/17 11:16:21;;;;;;;17.17;7.80;;;;;;;43.12;34.16;100875.34;6185132;23;20914;-80
2023/03/17 11:18:50;;;;;;;21.40;7.03;;;;;;;43.33;33.78;100886.13;6158349;23;20474;-81
2023/03/17 11:21:59;;;;;;;16.97;6.10;;;;;;;43.36;33.73;100877.25;6158039;23;20388;-81
2023/03/17 11:24:46;;;;;;;23.27;7.57;;;;;;;43.18;33.54;100871.25;6127131;23;20412;-80